Time;durP1;ratioP1;P1;durP2;ratioP2;P2;SDS_P1;SDS_P2;PMS_P1;PMS_P2;Temp;Humidity;BMP_temperature;BMP_pressure;BME280_temperature;BME280_humidity;BME280_pressure;Samples;Min_cycle;Max_cycle;Signal;HPM_P1;HPM_P2
2023/06/13 02:01:06;;;;;;;6.10;1.05;;;;;;;;;;4810356;28;20226;-80
2023/06/13 02:03:33;;;;;;;7.12;0.98;;;;;;;;;;4307971;33;20063;-79
2023/06/13 02:06:00;;;;;;;1.02;0.98;;;;;;;;;;4303001;33;20045;-79
2023/06/13 02:08:28;;;;;;;6.70;1.37;;;;;;;;;;4305498;33;20060;-79
2023/06/13 02:10:54;;;;;;;3.83;1.15;;;;;;;;;;4297200;33;20425;-78
2023/06/13 02:13:20;;;;;;;0.90;0.90;;;;;;;;;;4292514;33;20451;-79
2023/06/13 02:15:46;;;;;;;1.15;1.02;;;;;;;;;;4295657;33;20053;-78
2023/06/13 02:18:13;;;;;;;1.00;1.00;;;;;;;;;;4295381;33;20042;-78
2023/06/13 02:20:39;;;;;;;1.48;1.33;;;;;;;;;;4295266;33;20042;-78
2023/06/13 02:23:05;;;;;;;1.80;0.90;;;;;;;;;;4295753;33;20458;-79
2023/06/13 02:25:33;;;;;;;3.50;1.10;;;;;;;;;;4301650;33;20145;-79
2023/06/13 02:27:59;;;;;;;1.12;1.02;;;;;;;;;;4279325;33;20902;-78
2023/06/13 02:30:25;;;;;;;1.48;1.23;;;;;;;;;;4278768;33;20062;-77
2023/06/13 02:32:52;;;;;;;1.15;1.15;;;;;;;;;;4281856;33;20075;-77
2023/06/13 02:35:22;;;;;;;1.20;1.10;;;;;;;;;;4263059;33;20079;-79
2023/06/13 02:37:50;;;;;;;1.12;1.02;;;;;;;;;;4263487;33;20075;-76
2023/06/13 02:40:16;;;;;;;4.87;1.12;;;;;;;;;;4263301;33;20060;-76
2023/06/13 02:42:45;;;;;;;6.10;1.20;;;;;;;;;;4262774;33;20205;-76
2023/06/13 02:45:11;;;;;;;8.35;1.20;;;;;;;;;;4263761;33;20042;-77
2023/06/13 02:47:38;;;;;;;1.67;1.58;;;;;;;;;;4261487;33;20042;-79
2023/06/13 02:50:04;;;;;;;1.10;1.00;;;;;;;;;;4263924;33;20042;-77
2023/06/13 02:52:31;;;;;;;1.52;1.40;;;;;;;;;;4244606;33;20373;-77
2023/06/13 02:54:57;;;;;;;2.90;1.10;;;;;;;;;;4250256;33;20085;-78
2023/06/13 02:57:23;;;;;;;3.28;1.42;;;;;;;;;;4266035;33;20498;-78
2023/06/13 02:59:49;;;;;;;1.70;1.60;;;;;;;;;;4277526;33;20058;-81
2023/06/13 03:02:20;;;;;;;1.83;1.12;;;;;;;;;;4258894;33;20046;-79
2023/06/13 03:04:47;;;;;;;4.80;1.53;;;;;;;;;;4255557;33;20104;-79
2023/06/13 03:07:16;;;;;;;1.37;1.27;;;;;;;;;;4252904;33;20204;-78
2023/06/13 03:09:43;;;;;;;1.08;1.08;;;;;;;;;;4251120;33;20054;-80
2023/06/13 03:12:11;;;;;;;1.83;1.60;;;;;;;;;;4255512;33;20965;-79
2023/06/13 03:14:38;;;;;;;1.50;1.33;;;;;;;;;;4266715;33;20456;-79
2023/06/13 03:17:05;;;;;;;5.62;1.30;;;;;;;;;;4266723;33;20079;-79
2023/06/13 03:19:30;;;;;;;1.15;1.12;;;;;;;;;;4278308;33;20064;-79
2023/06/13 03:21:57;;;;;;;1.67;1.35;;;;;;;;;;4279961;33;20491;-80
2023/06/13 03:24:32;;;;;;;2.87;1.70;;;;;;;;;;4290907;33;20049;-78
2023/06/13 03:26:59;;;;;;;4.28;1.48;;;;;;;;;;4281056;33;20071;-79
2023/06/13 03:29:26;;;;;;;11.80;1.50;;;;;;;;;;4280992;33;20042;-78
2023/06/13 03:31:53;;;;;;;1.23;1.10;;;;;;;;;;4279665;33;20369;-79
2023/06/13 03:34:24;;;;;;;4.97;1.80;;;;;;;;;;4295980;33;20058;-78
2023/06/13 03:36:51;;;;;;;1.73;1.62;;;;;;;;;;4304212;33;20082;-80
2023/06/13 03:39:18;;;;;;;1.95;1.48;;;;;;;;;;4311037;33;20086;-78
2023/06/13 03:41:44;;;;;;;1.48;1.23;;;;;;;;;;4310988;33;20087;-79
2023/06/13 03:44:10;;;;;;;1.52;1.40;;;;;;;;;;4310075;33;20057;-79
2023/06/13 03:46:37;;;;;;;1.37;1.30;;;;;;;;;;4312483;33;21004;-80
2023/06/13 03:49:03;;;;;;;1.48;1.35;;;;;;;;;;4299031;33;20418;-80
2023/06/13 03:51:29;;;;;;;2.05;1.50;;;;;;;;;;4304465;33;20053;-78
2023/06/13 03:53:55;;;;;;;2.00;1.90;;;;;;;;;;4312062;33;20048;-78
2023/06/13 03:56:22;;;;;;;1.45;1.40;;;;;;;;;;4309498;33;20053;-80
2023/06/13 03:58:50;;;;;;;1.45;1.42;;;;;;;;;;4311962;33;20082;-77
2023/06/13 04:01:16;;;;;;;2.17;1.30;;;;;;;;;;4294001;33;20071;-77
2023/06/13 04:03:44;;;;;;;2.28;1.75;;;;;;;;;;4294979;33;20426;-77
2023/06/13 04:06:10;;;;;;;4.37;1.50;;;;;;;;;;4294807;33;20033;-78
2023/06/13 04:08:36;;;;;;;2.17;1.95;;;;;;;;;;4264243;33;20901;-80
2023/06/13 04:11:05;;;;;;;2.30;1.73;;;;;;;;;;4261631;33;20057;-78
2023/06/13 04:13:32;;;;;;;3.17;1.50;;;;;;;;;;4249853;33;20482;-78
2023/06/13 04:16:00;;;;;;;4.43;1.58;;;;;;;;;;4236741;33;20042;-77
2023/06/13 04:18:27;;;;;;;1.50;1.40;;;;;;;;;;4236025;33;20123;-79
2023/06/13 04:20:53;;;;;;;1.45;1.33;;;;;;;;;;4236107;33;20198;-78
2023/06/13 04:23:21;;;;;;;2.40;1.37;;;;;;;;;;4236830;33;20052;-78
2023/06/13 04:25:48;;;;;;;3.22;2.75;;;;;;;;;;4237728;33;20237;-78
2023/06/13 04:28:16;;;;;;;2.08;1.60;;;;;;;;;;4237587;33;20065;-79
2023/06/13 04:30:46;;;;;;;1.30;1.30;;;;;;;;;;4235571;33;20080;-79
2023/06/13 04:33:17;;;;;;;1.15;1.05;;;;;;;;;;4226160;33;20479;-79
2023/06/13 04:35:44;;;;;;;1.33;1.12;;;;;;;;;;4222948;34;20177;-79
2023/06/13 04:38:11;;;;;;;1.30;1.25;;;;;;;;;;4251144;33;20063;-79
2023/06/13 04:40:38;;;;;;;1.35;1.33;;;;;;;;;;4274179;33;20156;-79
2023/06/13 04:43:04;;;;;;;2.10;1.37;;;;;;;;;;4280051;33;20988;-78
2023/06/13 04:45:38;;;;;;;1.35;1.30;;;;;;;;;;4278788;33;20076;-78
2023/06/13 04:48:04;;;;;;;1.55;1.15;;;;;;;;;;4272651;33;20622;-79
2023/06/13 04:50:31;;;;;;;2.03;1.40;;;;;;;;;;4263037;33;20478;-81
2023/06/13 04:52:57;;;;;;;2.58;1.50;;;;;;;;;;4264719;33;20108;-79
2023/06/13 04:55:29;;;;;;;4.43;1.85;;;;;;;;;;4265509;33;20500;-78
2023/06/13 04:57:55;;;;;;;2.83;1.50;;;;;;;;;;4252491;33;20055;-80
2023/06/13 05:00:22;;;;;;;3.92;1.77;;;;;;;;;;4264636;33;20388;-79
2023/06/13 05:02:50;;;;;;;6.30;2.05;;;;;;;;;;4215776;33;20101;-78
2023/06/13 05:05:18;;;;;;;1.70;1.60;;;;;;;;;;4209123;34;20077;-77
2023/06/13 05:07:44;;;;;;;1.77;1.67;;;;;;;;;;4214239;33;20111;-77
2023/06/13 05:10:11;;;;;;;4.43;1.35;;;;;;;;;;4209622;34;20459;-78
2023/06/13 05:12:37;;;;;;;6.30;1.52;;;;;;;;;;4211968;34;20086;-78
2023/06/13 05:15:03;;;;;;;1.23;1.12;;;;;;;;;;4216142;33;20038;-78
2023/06/13 05:17:29;;;;;;;4.95;1.10;;;;;;;;;;4236385;33;20067;-81
2023/06/13 05:19:56;;;;;;;1.73;1.62;;;;;;;;;;4236154;33;20180;-82
2023/06/13 05:22:21;;;;;;;1.50;1.40;;;;;;;;;;4234498;33;20270;-80
2023/06/13 05:24:48;;;;;;;4.57;1.20;;;;;;;;;;4244758;33;20057;-80
2023/06/13 05:27:14;;;;;;;1.10;1.10;;;;;;;;;;4249116;33;20042;-79
2023/06/13 05:29:41;;;;;;;0.80;0.80;;;;;;;;;;4260804;33;20777;-79
2023/06/13 05:32:07;;;;;;;0.88;0.88;;;;;;;;;;4262341;33;20123;-85
2023/06/13 05:34:33;;;;;;;1.25;1.15;;;;;;;;;;4287595;33;20052;-85
2023/06/13 05:37:00;;;;;;;2.87;1.12;;;;;;;;;;4295621;33;20067;-78
2023/06/13 05:39:27;;;;;;;1.87;0.90;;;;;;;;;;4291657;33;20451;-80
2023/06/13 05:41:52;;;;;;;1.15;0.90;;;;;;;;;;4294779;33;20095;-83
2023/06/13 05:46:51;;;;;;;2.00;1.20;;;;;;;;;;4308821;33;20478;-80
2023/06/13 05:49:18;;;;;;;0.98;0.98;;;;;;;;;;4305524;33;20383;-81
2023/06/13 05:51:43;;;;;;;1.08;1.00;;;;;;;;;;4302640;33;20102;-79
2023/06/13 05:54:10;;;;;;;2.65;1.35;;;;;;;;;;4293043;33;20052;-79
2023/06/13 05:56:36;;;;;;;1.83;1.23;;;;;;;;;;4293318;33;20468;-79
2023/06/13 05:59:02;;;;;;;5.57;1.15;;;;;;;;;;4301149;33;20071;-78
2023/06/13 06:01:29;;;;;;;1.10;1.10;;;;;;;;;;4302273;33;20096;-79
2023/06/13 06:03:56;;;;;;;1.40;1.30;;;;;;;;;;4291561;33;20113;-79
2023/06/13 06:06:22;;;;;;;4.43;1.42;;;;;;;;;;4293349;33;20159;-79
2023/06/13 06:08:48;;;;;;;7.07;1.37;;;;;;;;;;4292010;33;20056;-78
2023/06/13 06:11:15;;;;;;;10.63;1.35;;;;;;;;;;4280589;33;20041;-78
2023/06/13 06:13:41;;;;;;;1.92;1.42;;;;;;;;;;4280095;33;20141;-78
2023/06/13 06:16:07;;;;;;;5.00;1.80;;;;;;;;;;4293363;33;20110;-77
2023/06/13 06:18:34;;;;;;;4.40;1.60;;;;;;;;;;4293400;33;20045;-78
2023/06/13 06:21:02;;;;;;;2.05;1.08;;;;;;;;;;4279433;33;20096;-77
2023/06/13 06:23:28;;;;;;;3.65;1.80;;;;;;;;;;4252785;33;20056;-78
2023/06/13 06:25:55;;;;;;;2.85;2.58;;;;;;;;;;4263743;33;20096;-79
2023/06/13 06:28:21;;;;;;;1.30;1.30;;;;;;;;;;4260810;33;20058;-79
2023/06/13 06:30:47;;;;;;;3.50;1.70;;;;;;;;;;4262080;33;20121;-79
2023/06/13 06:33:13;;;;;;;1.42;1.33;;;;;;;;;;4259999;33;20046;-80
2023/06/13 06:35:39;;;;;;;6.03;1.48;;;;;;;;;;4254675;33;20382;-77
2023/06/13 06:38:06;;;;;;;5.62;1.65;;;;;;;;;;4269333;33;20302;-77
2023/06/13 06:40:32;;;;;;;2.53;1.87;;;;;;;;;;4262369;33;20457;-77
2023/06/13 06:42:58;;;;;;;3.90;1.70;;;;;;;;;;4241338;33;20076;-78
2023/06/13 06:45:26;;;;;;;5.03;1.65;;;;;;;;;;4238143;33;20046;-77
2023/06/13 06:47:52;;;;;;;1.15;1.15;;;;;;;;;;4223898;33;20596;-77
2023/06/13 06:50:18;;;;;;;2.87;1.50;;;;;;;;;;4225615;33;20082;-78
2023/06/13 06:52:44;;;;;;;1.70;1.60;;;;;;;;;;4225609;34;20072;-77
2023/06/13 06:55:11;;;;;;;1.60;1.50;;;;;;;;;;4236641;33;20034;-77
2023/06/13 06:57:37;;;;;;;4.72;1.20;;;;;;;;;;4241532;33;20123;-77
2023/06/13 07:00:05;;;;;;;2.08;1.42;;;;;;;;;;4263443;33;20053;-75
2023/06/13 07:02:31;;;;;;;1.00;1.00;;;;;;;;;;4255551;33;20093;-75
2023/06/13 07:05:04;;;;;;;2.97;2.65;;;;;;;;;;4266758;33;20034;-77
2023/06/13 07:07:32;;;;;;;2.67;1.80;;;;;;;;;;4267136;33;20053;-77
2023/06/13 07:09:58;;;;;;;1.60;1.50;;;;;;;;;;4266936;33;20417;-76
2023/06/13 07:12:24;;;;;;;3.33;1.52;;;;;;;;;;4268450;33;20220;-77
2023/06/13 07:14:50;;;;;;;2.25;1.55;;;;;;;;;;4280379;33;20029;-82
2023/06/13 07:17:17;;;;;;;3.78;2.10;;;;;;;;;;4281951;33;20089;-78
2023/06/13 07:19:43;;;;;;;3.60;2.00;;;;;;;;;;4278894;33;20076;-79
2023/06/13 07:22:09;;;;;;;2.22;1.67;;;;;;;;;;4280179;33;20075;-77
2023/06/13 07:24:35;;;;;;;2.75;1.62;;;;;;;;;;4280250;33;20392;-78
2023/06/13 07:27:08;;;;;;;1.55;1.50;;;;;;;;;;4282003;33;20045;-77
2023/06/13 07:29:34;;;;;;;1.90;1.75;;;;;;;;;;4280728;33;20083;-77
2023/06/13 07:32:00;;;;;;;3.10;1.83;;;;;;;;;;4277670;33;20067;-76
2023/06/13 07:34:27;;;;;;;3.12;2.37;;;;;;;;;;4277752;33;20148;-77
2023/06/13 07:36:54;;;;;;;2.47;1.58;;;;;;;;;;4281325;33;20431;-78
2023/06/13 07:39:20;;;;;;;2.33;1.70;;;;;;;;;;4267356;33;20584;-75
2023/06/13 07:41:48;;;;;;;1.98;1.77;;;;;;;;;;4265762;33;20041;-76
2023/06/13 07:44:15;;;;;;;2.15;2.00;;;;;;;;;;4265146;33;20056;-77
2023/06/13 07:46:41;;;;;;;3.67;1.48;;;;;;;;;;4263603;33;20124;-75
2023/06/13 07:49:07;;;;;;;2.15;1.80;;;;;;;;;;4253611;33;20228;-76
2023/06/13 07:51:34;;;;;;;7.40;1.70;;;;;;;;;;4259250;33;20054;-77
2023/06/13 07:54:01;;;;;;;1.67;1.58;;;;;;;;;;4251508;33;20054;-78
2023/06/13 07:56:27;;;;;;;2.15;1.70;;;;;;;;;;4265788;33;20084;-77
2023/06/13 07:58:54;;;;;;;2.87;1.73;;;;;;;;;;4263403;33;20054;-78
2023/06/13 08:01:20;;;;;;;2.83;2.03;;;;;;;;;;4265426;33;20067;-78
2023/06/13 08:03:47;;;;;;;1.95;1.70;;;;;;;;;;4263930;33;20057;-79
2023/06/13 08:06:13;;;;;;;4.45;1.77;;;;;;;;;;4264661;33;20470;-78
2023/06/13 08:08:53;;;;;;;2.22;2.00;;;;;;;;;;4262909;33;20522;-78
2023/06/13 08:11:20;;;;;;;5.37;2.35;;;;;;;;;;4265613;33;20092;-77
2023/06/13 08:13:46;;;;;;;4.62;1.92;;;;;;;;;;4264075;33;20399;-77
2023/06/13 08:16:12;;;;;;;6.45;1.50;;;;;;;;;;4265851;33;20038;-77
2023/06/13 08:18:39;;;;;;;2.37;1.77;;;;;;;;;;4267288;33;20045;-77
2023/06/13 08:21:04;;;;;;;7.28;2.00;;;;;;;;;;4262708;33;20497;-78
2023/06/13 08:23:33;;;;;;;3.12;1.95;;;;;;;;;;4264730;33;20135;-76
2023/06/13 08:26:02;;;;;;;4.93;2.05;;;;;;;;;;4265566;33;20586;-76
2023/06/13 08:28:29;;;;;;;3.62;1.70;;;;;;;;;;4261830;33;20494;-76
2023/06/13 08:30:55;;;;;;;4.30;1.70;;;;;;;;;;4264309;33;20038;-78
2023/06/13 08:33:21;;;;;;;3.62;1.83;;;;;;;;;;4264857;33;20069;-80
2023/06/13 08:35:55;;;;;;;6.80;2.78;;;;;;;;;;4267738;33;20080;-78
2023/06/13 08:38:41;;;;;;;10.93;1.77;;;;;;;;;;4271611;33;20079;-79
2023/06/13 08:41:10;;;;;;;;;;;;;;;;;;4266599;33;20087;-77
2023/06/13 08:43:50;;;;;;;1.95;1.83;;;;;;;;;;4265273;33;19945;-78
2023/06/13 08:46:18;;;;;;;2.97;2.15;;;;;;;;;;4264122;33;20055;-79
2023/06/13 08:48:44;;;;;;;1.90;1.80;;;;;;;;;;4262471;33;20103;-78
2023/06/13 08:51:16;;;;;;;2.10;1.90;;;;;;;;;;4266356;33;20538;-79
2023/06/13 08:53:47;;;;;;;2.22;2.05;;;;;;;;;;4296300;33;20078;-79
2023/06/13 08:56:14;;;;;;;1.90;1.80;;;;;;;;;;4295767;33;20057;-77
2023/06/13 08:58:41;;;;;;;2.00;1.90;;;;;;;;;;4295916;33;20459;-79
2023/06/13 09:01:09;;;;;;;2.10;1.75;;;;;;;;;;4296478;33;20041;-78
2023/06/13 09:03:37;;;;;;;4.05;2.05;;;;;;;;;;4294814;33;20056;-77
2023/06/13 09:06:06;;;;;;;4.28;2.35;;;;;;;;;;4296012;33;20041;-76
2023/06/13 09:08:33;;;;;;;7.15;2.47;;;;;;;;;;4275724;33;20112;-76
2023/06/13 09:11:00;;;;;;;18.37;9.65;;;;;;;;;;4278152;33;20478;-76
2023/06/13 09:13:27;;;;;;;5.25;2.40;;;;;;;;;;4279155;33;20072;-76
2023/06/13 09:15:55;;;;;;;2.85;2.65;;;;;;;;;;4278219;33;20075;-77
2023/06/13 09:18:22;;;;;;;3.45;2.55;;;;;;;;;;4270199;33;20049;-77
2023/06/13 09:20:48;;;;;;;3.85;2.70;;;;;;;;;;4270814;33;20041;-77
2023/06/13 09:23:17;;;;;;;9.25;2.25;;;;;;;;;;4274379;33;20046;-78
2023/06/13 09:25:47;;;;;;;3.33;2.35;;;;;;;;;;4259301;33;20438;-77
2023/06/13 09:28:43;;;;;;;3.85;2.05;;;;;;;;;;4263073;33;20176;-77
2023/06/13 09:31:10;;;;;;;1.87;1.77;;;;;;;;;;4205288;34;20076;-77
2023/06/13 09:33:44;;;;;;;2.90;1.65;;;;;;;;;;4179945;34;20094;-77
2023/06/13 09:36:10;;;;;;;5.50;2.22;;;;;;;;;;4177629;34;20433;-78
2023/06/13 09:38:40;;;;;;;2.25;2.08;;;;;;;;;;4178473;34;20719;-78
2023/06/13 09:41:06;;;;;;;1.90;1.80;;;;;;;;;;4178886;34;20044;-77
2023/06/13 09:43:33;;;;;;;2.05;1.87;;;;;;;;;;4180747;34;20048;-78
2023/06/13 09:46:01;;;;;;;4.05;1.70;;;;;;;;;;4179496;34;20044;-77
2023/06/13 09:48:27;;;;;;;4.22;1.80;;;;;;;;;;4179110;34;20117;-77
2023/06/13 09:50:54;;;;;;;1.70;1.60;;;;;;;;;;4178167;34;20048;-78
2023/06/13 09:53:21;;;;;;;2.15;1.87;;;;;;;;;;4179829;34;20151;-78
2023/06/13 09:55:48;;;;;;;18.67;9.63;;;;;;;;;;4180466;34;20481;-78
2023/06/13 09:58:15;;;;;;;2.55;2.15;;;;;;;;;;4191079;34;20208;-77
2023/06/13 10:00:41;;;;;;;1.92;1.80;;;;;;;;;;4194363;34;20044;-78
2023/06/13 10:03:08;;;;;;;1.73;1.60;;;;;;;;;;4194024;34;20097;-76
2023/06/13 10:05:34;;;;;;;1.65;1.55;;;;;;;;;;4208445;34;20149;-79
2023/06/13 10:08:00;;;;;;;2.00;1.40;;;;;;;;;;4267249;33;20062;-78
2023/06/13 10:10:27;;;;;;;0.95;0.93;;;;;;;;;;4293207;33;20546;-75
2023/06/13 10:12:58;;;;;;;1.17;1.08;;;;;;;;;;4295319;33;20768;-77
2023/06/13 10:15:34;;;;;;;1.27;1.27;;;;;;;;;;4294368;33;20049;-78
2023/06/13 10:18:05;;;;;;;4.82;1.08;;;;;;;;;;4276046;33;20056;-78
2023/06/13 10:20:32;;;;;;;1.10;1.10;;;;;;;;;;4278243;33;20050;-79
2023/06/13 10:23:08;;;;;;;1.92;1.30;;;;;;;;;;4278611;33;20196;-78
2023/06/13 10:25:35;;;;;;;1.23;1.20;;;;;;;;;;4278602;33;20049;-79
2023/06/13 10:28:18;;;;;;;1.40;1.30;;;;;;;;;;4248793;33;20067;-77
2023/06/13 10:30:44;;;;;;;1.60;1.50;;;;;;;;;;4249823;33;20168;-79
2023/06/13 10:33:39;;;;;;;1.08;1.08;;;;;;;;;;4250067;33;20049;-83
2023/06/13 10:36:17;;;;;;;1.58;1.10;;;;;;;;;;4207545;34;20088;-81
2023/06/13 10:39:03;;;;;;;1.15;1.10;;;;;;;;;;4208140;34;20077;-82
2023/06/13 10:41:30;;;;;;;3.33;1.20;;;;;;;;;;4194015;34;20047;-82
2023/06/13 10:44:09;;;;;;;4.50;1.08;;;;;;;;;;4207494;34;20806;-82
2023/06/13 10:46:35;;;;;;;1.35;1.25;;;;;;;;;;4208620;34;20121;-84
2023/06/13 10:49:02;;;;;;;3.70;1.37;;;;;;;;;;4207722;34;20150;-83
2023/06/13 10:51:32;;;;;;;1.50;1.40;;;;;;;;;;4206116;34;20028;-82
2023/06/13 10:54:13;;;;;;;3.10;1.20;;;;;;;;;;4208371;34;20409;-86
2023/06/13 10:56:42;;;;;;;3.45;1.20;;;;;;;;;;4216019;34;20065;-86
2023/06/13 10:59:10;;;;;;;1.90;1.67;;;;;;;;;;4236281;33;20038;-77
2023/06/13 11:01:37;;;;;;;0.95;0.93;;;;;;;;;;4396578;28;20059;-84
2023/06/13 11:04:10;;;;;;;2.67;1.37;;;;;;;;;;4249938;33;20051;-83
2023/06/13 11:06:37;;;;;;;3.83;1.30;;;;;;;;;;4250080;33;20067;-78
2023/06/13 11:09:20;;;;;;;1.23;1.23;;;;;;;;;;4247566;33;20053;-84
2023/06/13 11:11:47;;;;;;;1.50;1.50;;;;;;;;;;4257063;33;20074;-81
2023/06/13 11:14:14;;;;;;;1.58;1.33;;;;;;;;;;4293580;33;20489;-81
2023/06/13 11:16:43;;;;;;;2.42;1.70;;;;;;;;;;4277284;33;20055;-79
2023/06/13 11:19:13;;;;;;;1.48;1.40;;;;;;;;;;4280744;33;20057;-80
2023/06/13 11:21:43;;;;;;;4.90;1.77;;;;;;;;;;4283092;33;20908;-82
2023/06/13 11:24:11;;;;;;;1.80;1.70;;;;;;;;;;4281945;33;20079;-81
2023/06/13 11:26:37;;;;;;;1.73;1.62;;;;;;;;;;4279674;33;20059;-79
2023/06/13 11:29:03;;;;;;;2.22;1.77;;;;;;;;;;4279983;33;20085;-83
2023/06/13 11:31:29;;;;;;;6.37;1.83;;;;;;;;;;4280574;33;20049;-82
2023/06/13 11:34:03;;;;;;;5.20;1.62;;;;;;;;;;4279577;33;20057;-76
2023/06/13 11:36:31;;;;;;;1.80;1.70;;;;;;;;;;4280620;33;20054;-79
2023/06/13 11:39:03;;;;;;;1.90;1.80;;;;;;;;;;4278643;33;20138;-79
2023/06/13 11:41:30;;;;;;;1.58;1.48;;;;;;;;;;4281250;33;20076;-80
2023/06/13 11:43:56;;;;;;;2.75;2.60;;;;;;;;;;4280136;33;20208;-79
2023/06/13 11:46:23;;;;;;;2.72;2.50;;;;;;;;;;4278906;33;20046;-85
2023/06/13 11:48:58;;;;;;;3.28;1.92;;;;;;;;;;4263947;33;20507;-80
2023/06/13 11:51:26;;;;;;;1.70;1.60;;;;;;;;;;4263845;33;20476;-83
2023/06/13 11:53:54;;;;;;;1.62;1.52;;;;;;;;;;4247188;33;20050;-82
2023/06/13 11:56:21;;;;;;;5.37;1.80;;;;;;;;;;4252077;33;20042;-78
2023/06/13 11:58:47;;;;;;;6.53;2.35;;;;;;;;;;4248505;33;20050;-78
2023/06/13 12:01:15;;;;;;;2.15;1.83;;;;;;;;;;4251598;33;20143;-79
2023/06/13 12:03:45;;;;;;;1.92;1.80;;;;;;;;;;4250418;33;20479;-77
2023/06/13 12:06:12;;;;;;;1.98;1.87;;;;;;;;;;4256738;33;20641;-78
2023/06/13 12:08:40;;;;;;;2.10;1.90;;;;;;;;;;4269661;33;20096;-77
2023/06/13 12:11:06;;;;;;;1.80;1.70;;;;;;;;;;4268501;33;20137;-81
2023/06/13 12:13:33;;;;;;;4.30;1.80;;;;;;;;;;4270862;33;20057;-82
2023/06/13 12:15:59;;;;;;;2.00;1.90;;;;;;;;;;4269980;33;20507;-82
2023/06/13 12:18:28;;;;;;;1.87;1.77;;;;;;;;;;4251777;33;20050;-83
2023/06/13 12:20:56;;;;;;;3.37;1.85;;;;;;;;;;4254700;33;20018;-80
2023/06/13 12:23:23;;;;;;;1.80;1.70;;;;;;;;;;4253346;33;20066;-82
2023/06/13 12:25:50;;;;;;;4.05;1.77;;;;;;;;;;4281500;33;20041;-82
2023/06/13 12:28:17;;;;;;;1.70;1.65;;;;;;;;;;4289315;33;20075;-80
2023/06/13 12:30:45;;;;;;;1.70;1.70;;;;;;;;;;4271599;33;20128;-80
2023/06/13 12:33:16;;;;;;;1.83;1.73;;;;;;;;;;4270322;33;20166;-79
2023/06/13 12:35:52;;;;;;;1.67;1.62;;;;;;;;;;4267887;33;20467;-80
2023/06/13 12:38:19;;;;;;;1.58;1.45;;;;;;;;;;4258808;33;20100;-80
2023/06/13 12:40:51;;;;;;;1.50;1.50;;;;;;;;;;4262545;33;20071;-84
2023/06/13 12:43:28;;;;;;;1.45;1.35;;;;;;;;;;4266114;33;20698;-82
2023/06/13 12:45:58;;;;;;;1.27;1.27;;;;;;;;;;4258882;33;20076;-85
2023/06/13 12:48:25;;;;;;;1.45;1.45;;;;;;;;;;4247599;33;20064;-78
2023/06/13 12:50:58;;;;;;;1.55;1.55;;;;;;;;;;4245321;33;20056;-80
2023/06/13 12:53:25;;;;;;;2.30;1.75;;;;;;;;;;4248884;33;20072;-78
2023/06/13 12:55:51;;;;;;;5.78;4.05;;;;;;;;;;4246447;33;20089;-80
2023/06/13 12:58:27;;;;;;;1.20;1.20;;;;;;;;;;4241235;33;20062;-79
2023/06/13 13:00:53;;;;;;;2.85;1.25;;;;;;;;;;4243884;33;20057;-80
2023/06/13 13:03:20;;;;;;;1.40;1.40;;;;;;;;;;4273249;33;20045;-82
2023/06/13 13:05:49;;;;;;;1.42;1.33;;;;;;;;;;4237610;33;20050;-79
2023/06/13 13:08:17;;;;;;;1.77;1.62;;;;;;;;;;4251170;33;20117;-80
2023/06/13 13:10:43;;;;;;;3.55;1.55;;;;;;;;;;4251227;33;20042;-81
2023/06/13 13:13:15;;;;;;;2.33;1.25;;;;;;;;;;4251102;33;20183;-79
2023/06/13 13:15:42;;;;;;;1.12;1.12;;;;;;;;;;4249819;33;20054;-80
2023/06/13 13:18:09;;;;;;;1.10;1.10;;;;;;;;;;4249421;33;20038;-81
2023/06/13 13:20:35;;;;;;;0.90;0.90;;;;;;;;;;4250087;33;20059;-78
2023/06/13 13:23:03;;;;;;;1.12;1.12;;;;;;;;;;4233791;33;20110;-82
2023/06/13 13:25:32;;;;;;;1.67;1.00;;;;;;;;;;4234999;33;20237;-81
2023/06/13 13:27:59;;;;;;;1.90;1.45;;;;;;;;;;4239618;33;20573;-81
2023/06/13 13:30:26;;;;;;;1.30;1.30;;;;;;;;;;4242289;33;20079;-82
2023/06/13 13:32:52;;;;;;;1.30;1.10;;;;;;;;;;4233885;33;20050;-81
2023/06/13 13:35:20;;;;;;;0.93;0.93;;;;;;;;;;4236066;33;20286;-82
2023/06/13 13:37:47;;;;;;;1.15;1.15;;;;;;;;;;4226866;33;20066;-82
2023/06/13 13:40:16;;;;;;;3.05;1.12;;;;;;;;;;4219634;33;20050;-81
2023/06/13 13:42:42;;;;;;;3.97;1.00;;;;;;;;;;4216672;33;20069;-80
2023/06/13 13:45:09;;;;;;;1.30;1.10;;;;;;;;;;4226931;33;20513;-81
2023/06/13 13:47:35;;;;;;;1.23;1.10;;;;;;;;;;4228305;33;20073;-80
2023/06/13 13:50:02;;;;;;;5.50;1.35;;;;;;;;;;4209179;34;20129;-80
2023/06/13 13:52:28;;;;;;;1.15;1.05;;;;;;;;;;4202343;34;20106;-79
2023/06/13 13:54:55;;;;;;;1.30;1.25;;;;;;;;;;4241609;33;20057;-80
2023/06/13 13:57:21;;;;;;;2.40;1.02;;;;;;;;;;4252560;33;20062;-81
2023/06/13 13:59:49;;;;;;;2.12;1.27;;;;;;;;;;4253588;33;20046;-81
2023/06/13 14:02:15;;;;;;;1.23;1.23;;;;;;;;;;4263537;33;20041;-82
2023/06/13 14:04:41;;;;;;;4.05;1.58;;;;;;;;;;4265786;33;20042;-78
2023/06/13 14:07:08;;;;;;;5.43;1.35;;;;;;;;;;4270302;33;20064;-81
2023/06/13 14:09:34;;;;;;;4.87;1.50;;;;;;;;;;4277905;33;20132;-83
2023/06/13 14:12:00;;;;;;;2.25;1.80;;;;;;;;;;4278010;33;20082;-82
2023/06/13 14:14:26;;;;;;;1.23;1.23;;;;;;;;;;4276900;33;20767;-83
2023/06/13 14:16:53;;;;;;;1.60;1.50;;;;;;;;;;4278539;33;20049;-78
2023/06/13 14:19:20;;;;;;;1.52;1.45;;;;;;;;;;4282377;33;20069;-79
2023/06/13 14:21:46;;;;;;;1.98;1.83;;;;;;;;;;4282870;33;20448;-84
2023/06/13 14:24:12;;;;;;;1.55;1.52;;;;;;;;;;4282901;33;20053;-82
2023/06/13 14:26:39;;;;;;;6.20;2.30;;;;;;;;;;4271516;33;20129;-81
2023/06/13 14:29:05;;;;;;;6.15;1.98;;;;;;;;;;4251440;33;20049;-78
2023/06/13 14:31:38;;;;;;;4.22;1.60;;;;;;;;;;4262386;33;20553;-81
2023/06/13 14:34:04;;;;;;;3.00;2.72;;;;;;;;;;4264049;33;20198;-79
2023/06/13 14:36:31;;;;;;;1.80;1.70;;;;;;;;;;4263489;33;20049;-81
2023/06/13 14:38:59;;;;;;;5.05;1.65;;;;;;;;;;4257533;33;20405;-77
2023/06/13 14:41:26;;;;;;;4.00;1.60;;;;;;;;;;4264196;33;20208;-81
2023/06/13 14:43:52;;;;;;;4.10;1.77;;;;;;;;;;4263818;33;20435;-79
2023/06/13 14:46:18;;;;;;;2.20;1.75;;;;;;;;;;4263034;33;20092;-82
2023/06/13 14:48:44;;;;;;;1.80;1.62;;;;;;;;;;4259564;33;20057;-83
2023/06/13 14:51:11;;;;;;;5.05;4.30;;;;;;;;;;4260423;33;20061;-78
2023/06/13 14:53:37;;;;;;;2.58;2.17;;;;;;;;;;4248600;33;20101;-80
2023/06/13 14:56:04;;;;;;;10.63;2.08;;;;;;;;;;4271802;33;20070;-81
2023/06/13 14:58:30;;;;;;;2.50;1.80;;;;;;;;;;4276567;33;20071;-80
2023/06/13 15:00:56;;;;;;;4.00;1.77;;;;;;;;;;4281149;33;20558;-80
2023/06/13 15:03:22;;;;;;;2.62;2.05;;;;;;;;;;4296766;33;20076;-80
2023/06/13 15:05:49;;;;;;;2.22;1.70;;;;;;;;;;4297246;33;20080;-84
2023/06/13 15:08:15;;;;;;;7.72;1.80;;;;;;;;;;4297463;33;20067;-79
2023/06/13 15:10:42;;;;;;;2.47;2.33;;;;;;;;;;4297569;33;20388;-79
2023/06/13 15:13:08;;;;;;;3.78;2.20;;;;;;;;;;4297051;33;20227;-80
2023/06/13 15:15:34;;;;;;;7.25;2.65;;;;;;;;;;4265666;33;20135;-79
2023/06/13 15:18:01;;;;;;;4.10;2.92;;;;;;;;;;4263084;33;20424;-80
2023/06/13 15:20:27;;;;;;;2.67;2.33;;;;;;;;;;4264912;33;20079;-82
2023/06/13 15:22:53;;;;;;;4.00;3.28;;;;;;;;;;4263534;33;20038;-79
2023/06/13 15:25:20;;;;;;;2.28;2.00;;;;;;;;;;4261312;33;20387;-79
2023/06/13 15:27:45;;;;;;;3.22;2.90;;;;;;;;;;4261084;33;20037;-80
2023/06/13 15:30:12;;;;;;;12.20;2.70;;;;;;;;;;4252666;33;20453;-79
2023/06/13 15:32:38;;;;;;;2.87;2.65;;;;;;;;;;4256582;33;20252;-79
2023/06/13 15:35:05;;;;;;;2.85;2.62;;;;;;;;;;4257180;33;20054;-79
2023/06/13 15:37:31;;;;;;;2.45;2.05;;;;;;;;;;4258783;33;20022;-78
2023/06/13 15:39:57;;;;;;;6.45;2.35;;;;;;;;;;4259733;33;20196;-77
2023/06/13 15:42:23;;;;;;;2.30;1.90;;;;;;;;;;4222476;34;20137;-80
2023/06/13 15:44:49;;;;;;;3.70;2.05;;;;;;;;;;4223700;34;20054;-78
2023/06/13 15:47:16;;;;;;;2.45;2.25;;;;;;;;;;4234230;33;20068;-80
2023/06/13 15:49:42;;;;;;;2.60;2.40;;;;;;;;;;4239690;33;20046;-81
2023/06/13 15:52:08;;;;;;;2.72;2.20;;;;;;;;;;4232595;33;20057;-78
2023/06/13 15:54:35;;;;;;;5.57;2.55;;;;;;;;;;4236933;33;20455;-81
2023/06/13 15:57:02;;;;;;;4.72;2.22;;;;;;;;;;4246519;33;20117;-82
2023/06/13 15:59:28;;;;;;;2.55;2.40;;;;;;;;;;4223265;34;20035;-82
2023/06/13 16:01:55;;;;;;;2.00;1.90;;;;;;;;;;4225007;33;20469;-81
2023/06/13 16:04:21;;;;;;;2.28;2.10;;;;;;;;;;4219825;34;20373;-80
2023/06/13 16:06:48;;;;;;;2.53;2.10;;;;;;;;;;4223584;33;20119;-81
2023/06/13 16:09:15;;;;;;;2.20;2.10;;;;;;;;;;4221716;34;20084;-82
2023/06/13 16:11:41;;;;;;;2.72;2.53;;;;;;;;;;4222332;34;20065;-80
2023/06/13 16:14:07;;;;;;;2.45;2.25;;;;;;;;;;4257841;33;20062;-80
2023/06/13 16:16:33;;;;;;;3.35;3.05;;;;;;;;;;4266798;33;20053;-80
2023/06/13 16:19:00;;;;;;;2.30;2.15;;;;;;;;;;4267654;33;20068;-81
2023/06/13 16:21:26;;;;;;;2.83;2.47;;;;;;;;;;4267672;33;20060;-80
2023/06/13 16:23:52;;;;;;;3.00;2.70;;;;;;;;;;4267049;33;20065;-80
2023/06/13 16:26:19;;;;;;;2.90;2.60;;;;;;;;;;4287666;33;20110;-75
2023/06/13 16:28:45;;;;;;;4.20;2.47;;;;;;;;;;4300429;33;20755;-79
2023/06/13 16:31:11;;;;;;;4.93;2.90;;;;;;;;;;4300538;33;20071;-78
2023/06/13 16:33:38;;;;;;;2.75;2.55;;;;;;;;;;4299900;33;20085;-78
2023/06/13 16:36:06;;;;;;;4.40;3.42;;;;;;;;;;4297207;33;20087;-79
2023/06/13 16:38:32;;;;;;;3.62;3.33;;;;;;;;;;4288198;33;20049;-78
2023/06/13 16:40:59;;;;;;;3.30;3.10;;;;;;;;;;4297777;33;21012;-78
2023/06/13 16:43:25;;;;;;;3.80;3.40;;;;;;;;;;4293062;33;20485;-78
2023/06/13 16:45:51;;;;;;;3.70;3.40;;;;;;;;;;4296572;33;20065;-83
2023/06/13 16:48:18;;;;;;;3.75;3.45;;;;;;;;;;4298259;33;20199;-79